tititudorancea.com
Station Historical Data
Daily Summary for April 21, 2018 Units:  Metric    English   Both
« Previous Day
Next Day »
Daily Weekly Monthly Yearly Custom
  High: Low: Average:
Temperature: -17.8 °C 6.6 °C 15.2 °C
Dew Point: -17.8 °C 5.1 °C 8.3 °C
Humidity: Humidity % 41 % 66 %
Wind Speed: 0 km/h 0 km/h 2.3 km/h
Wind Gust: 0 km/h - -
Wind:- - South
Pressure: 0 hPa 1018.5 hPa -
Precipitation: 0 mm    
Historical Graphs
 
 
Ararat weather Find more about Weather in Ararat, AU


 



 


Tabular Data for April 21, 2018
Time Temperature Dew Point Pressure Wind Wind Speed Wind Gust Humidity Rainfall Rate (Hourly)
-17.8 °C -17.8 °C 0 hPa Calm     Humidity % 0 mm
00:05 10.5 °C 7 °C 1019.5 hPa Calm     79 % 0 mm
00:10 10.4 °C 6.9 °C 1019.5 hPa Calm     79 % 0 mm
00:15 10.2 °C 6.9 °C 1019.2 hPa Calm     80 % 0 mm
00:20 10.2 °C 6.9 °C 1019.5 hPa Calm     80 % 0 mm
00:25 10 °C 6.7 °C 1019.2 hPa Calm     80 % 0 mm
00:30 9.9 °C 6.8 °C 1019.2 hPa Calm     81 % 0 mm
00:35 9.8 °C 6.9 °C 1019.2 hPa Calm     82 % 0 mm
00:40 9.7 °C 6.7 °C 1019.2 hPa Calm     82 % 0 mm
00:45 9.6 °C 6.8 °C 1019.5 hPa Calm     83 % 0 mm
00:50 9.5 °C 6.9 °C 1019.5 hPa Calm     84 % 0 mm
00:55 9.4 °C 6.9 °C 1019.2 hPa Calm     84 % 0 mm
01:00 9.4 °C 6.8 °C 1019.2 hPa Calm     84 % 0 mm
01:05 9.3 °C 6.7 °C 1019.2 hPa Calm     84 % 0 mm
01:10 9.2 °C 6.7 °C 1019.2 hPa Calm     84 % 0 mm
01:12 9.2 °C 6.6 °C 1019.2 hPa Calm     84 % 0 mm
01:17 9.1 °C 6.6 °C 1019.2 hPa Calm     84 % 0 mm
01:22 9 °C 6.6 °C 1019.2 hPa Calm     85 % 0 mm
01:27 8.9 °C 6.3 °C 1019.2 hPa Calm     84 % 0 mm
01:32 8.7 °C 6.2 °C 1019.2 hPa SSE 1.4 km/h 1.9 km/h 84 % 0 mm
01:37 8.6 °C 6.2 °C 1019.2 hPa Calm     85 % 0 mm
01:42 8.4 °C 6 °C 1019.2 hPa Calm     85 % 0 mm
01:47 8.3 °C 6.1 °C 1019.2 hPa Calm     86 % 0 mm
01:52 8.2 °C 5.9 °C 1019.2 hPa Calm     86 % 0 mm
01:57 8.2 °C 6.1 °C 1019.2 hPa Calm     87 % 0 mm
02:02 8.1 °C 6.1 °C 1019.2 hPa Calm     87 % 0 mm
02:07 8.1 °C 6.2 °C 1019.2 hPa Calm     88 % 0 mm
02:12 8 °C 6.1 °C 1019.2 hPa Calm     88 % 0 mm
02:17 8 °C 6.1 °C 1019.2 hPa Calm     88 % 0 mm
02:22 7.9 °C 6.1 °C 1019.2 hPa Calm     88 % 0 mm
02:27 7.8 °C 5.9 °C 1019.2 hPa Calm     88 % 0 mm
02:32 7.8 °C 6.1 °C 1019.2 hPa Calm     89 % 0 mm
02:37 7.9 °C 6.2 °C 1019.2 hPa Calm     89 % 0 mm
02:39 7.9 °C 6.4 °C 1019.2 hPa Calm     90 % 0 mm
02:44 8.1 °C 6.5 °C 1019.2 hPa Calm     90 % 0 mm
02:49 8.1 °C 6.6 °C 1018.8 hPa Calm     90 % 0 mm
02:54 8 °C 6.3 °C 1018.8 hPa Calm     89 % 0 mm
02:59 7.9 °C 6.2 °C 1018.8 hPa Calm     89 % 0 mm
03:04 7.8 °C 6.1 °C 1018.5 hPa Calm     89 % 0 mm
03:09 7.7 °C 6 °C 1018.5 hPa Calm     89 % 0 mm
03:14 7.7 °C 6 °C 1018.5 hPa Calm     89 % 0 mm
03:19 7.7 °C 5.9 °C 1018.5 hPa Calm     89 % 0 mm
03:24 7.4 °C 5.7 °C 1018.5 hPa Calm     89 % 0 mm
03:29 7.4 °C 5.9 °C 1018.5 hPa Calm     90 % 0 mm
03:34 7.5 °C 5.9 °C 1018.5 hPa Calm     90 % 0 mm
03:39 7.6 °C 6 °C 1018.5 hPa Calm     90 % 0 mm
03:44 7.5 °C 5.9 °C 1018.5 hPa Calm     90 % 0 mm
03:49 7.5 °C 5.9 °C 1018.8 hPa Calm     90 % 0 mm
03:54 7.4 °C 5.9 °C 1018.8 hPa Calm     90 % 0 mm
03:59 7.3 °C 5.7 °C 1018.8 hPa Calm     89 % 0 mm
04:04 7.2 °C 5.6 °C 1018.8 hPa Calm     89 % 0 mm
04:09 7.1 °C 5.6 °C 1018.8 hPa Calm     90 % 0 mm
04:14 7.1 °C 5.5 °C 1018.8 hPa Calm     90 % 0 mm
04:19 7 °C 5.4 °C 1018.8 hPa Calm     90 % 0 mm
04:24 7.1 °C 5.5 °C 1018.8 hPa Calm     90 % 0 mm
04:29 6.9 °C 5.3 °C 1019.2 hPa Calm     89 % 0 mm
04:34 6.9 °C 5.4 °C 1019.2 hPa Calm     90 % 0 mm
04:39 6.8 °C 5.3 °C 1019.2 hPa Calm     90 % 0 mm
04:44 6.9 °C 5.4 °C 1019.2 hPa Calm     90 % 0 mm
04:49 6.8 °C 5.3 °C 1019.2 hPa Calm     90 % 0 mm
04:54 6.7 °C 5.2 °C 1019.2 hPa Calm     90 % 0 mm
04:59 6.7 °C 5.2 °C 1019.2 hPa Calm     90 % 0 mm
05:04 6.6 °C 5.1 °C 1019.2 hPa Calm     90 % 0 mm
05:09 6.6 °C 5.2 °C 1019.2 hPa Calm     91 % 0 mm
05:14 6.6 °C 5.2 °C 1019.2 hPa Calm     91 % 0 mm
05:19 6.7 °C 5.3 °C 1019.2 hPa Calm     91 % 0 mm
05:24 6.7 °C 5.3 °C 1019.2 hPa Calm     91 % 0 mm
05:29 6.8 °C 5.4 °C 1019.2 hPa Calm     91 % 0 mm
05:34 6.8 °C 5.4 °C 1019.5 hPa Calm     91 % 0 mm
05:39 6.8 °C 5.4 °C 1019.5 hPa Calm     91 % 0 mm
05:44 6.8 °C 5.4 °C 1019.9 hPa Calm     91 % 0 mm
05:49 6.9 °C 5.5 °C 1019.9 hPa Calm     91 % 0 mm
05:54 6.9 °C 5.5 °C 1020.2 hPa Calm     91 % 0 mm
05:59 6.9 °C 5.5 °C 1020.5 hPa SSE 3.9 km/h 6.4 km/h 91 % 0 mm
06:04 6.8 °C 5.4 °C 1020.5 hPa SSE 6.9 km/h 13 km/h 91 % 0 mm
06:09 7 °C 5.6 °C 1020.5 hPa Calm   1.9 km/h 91 % 0 mm
06:14 7.2 °C 5.8 °C 1020.5 hPa SSE 1.4 km/h 5.6 km/h 91 % 0 mm
06:19 7.3 °C 5.9 °C 1020.5 hPa Calm     91 % 0 mm
06:24 7.4 °C 6.1 °C 1020.5 hPa Calm   3.7 km/h 91 % 0 mm
06:29 7.7 °C 6.3 °C 1020.5 hPa SSE 4.3 km/h 7.4 km/h 91 % 0 mm
06:34 7.8 °C 6.2 °C 1020.5 hPa SSE 3.5 km/h 9.3 km/h 90 % 0 mm
06:39 7.8 °C 6.1 °C 1020.9 hPa SSE 0.6 km/h 5.6 km/h 89 % 0 mm
06:44 7.8 °C 5.9 °C 1020.5 hPa SSE 3.4 km/h 5.6 km/h 88 % 0 mm
06:49 7.8 °C 5.9 °C 1020.9 hPa Calm     88 % 0 mm
06:54 7.7 °C 5.8 °C 1020.5 hPa North 6 km/h 9.3 km/h 88 % 0 mm
06:59 7.7 °C 5.8 °C 1020.9 hPa Calm     88 % 0 mm
07:04 7.6 °C 5.7 °C 1020.5 hPa North 1.9 km/h 6.4 km/h 88 % 0 mm
07:09 7.6 °C 5.8 °C 1020.5 hPa SSE 0.6 km/h 1.6 km/h 89 % 0 mm
07:14 7.5 °C 5.8 °C 1020.5 hPa SSE 2.1 km/h 3.7 km/h 89 % 0 mm
07:19 7.6 °C 5.8 °C 1020.5 hPa SSE 1.3 km/h 3.2 km/h 89 % 0 mm
07:24 7.8 °C 6.1 °C 1020.5 hPa Calm     89 % 0 mm
07:29 7.9 °C 6.2 °C 1020.5 hPa SSE 5.6 km/h 6.4 km/h 89 % 0 mm
07:34 8.2 °C 6.5 °C 1020.5 hPa SSE 1.3 km/h 5.6 km/h 89 % 0 mm
07:39 8.4 °C 6.7 °C 1020.5 hPa Calm   1.9 km/h 89 % 0 mm
07:44 8.7 °C 6.8 °C 1020.5 hPa SSE 0.6 km/h 1.9 km/h 88 % 0 mm
07:49 9.1 °C 7.2 °C 1020.5 hPa Calm     88 % 0 mm
07:54 9.4 °C 7.3 °C 1020.5 hPa Calm   1.9 km/h 87 % 0 mm
07:59 9.8 °C 7.7 °C 1020.5 hPa SSE 1.4 km/h 3.2 km/h 87 % 0 mm
08:04 10.2 °C 8 °C 1020.5 hPa Calm     86 % 0 mm
08:42 13.9 °C 9.6 °C 1020.5 hPa Calm     75 % 0 mm
08:47 14.6 °C 9.4 °C 1020.5 hPa Calm     71 % 0 mm
08:52 15.1 °C 9 °C 1020.5 hPa SSE 3.4 km/h 6.4 km/h 67 % 0 mm
08:57 15.5 °C 9.4 °C 1020.5 hPa Calm   1.9 km/h 67 % 0 mm
09:02 15.9 °C 9.1 °C 1020.5 hPa SSE 0.5 km/h 3.2 km/h 64 % 0 mm
09:07 16.3 °C 9.4 °C 1020.5 hPa SSE 0.3 km/h   64 % 0 mm
09:12 16.7 °C 9.2 °C 1020.5 hPa SSE 2.1 km/h 3.7 km/h 61 % 0 mm
09:17 17.2 °C 9.4 °C 1020.2 hPa SSE 0.6 km/h 1.9 km/h 60 % 0 mm
09:22 17.9 °C 9.5 °C 1020.2 hPa Calm     58 % 0 mm
09:27 18.4 °C 9.4 °C 1020.2 hPa Calm     56 % 0 mm
09:32 19 °C 8.9 °C 1020.2 hPa Calm     52 % 0 mm
09:37 19.5 °C 9.1 °C 1020.2 hPa SSE 0.6 km/h 1.9 km/h 51 % 0 mm
09:42 19.8 °C 9.1 °C 1020.2 hPa Calm     50 % 0 mm
09:47 20.3 °C 9.2 °C 1020.2 hPa SSE 0.2 km/h 1.9 km/h 49 % 0 mm
09:52 20.9 °C 9.2 °C 1019.9 hPa SSE 0.5 km/h 3.2 km/h 47 % 0 mm
09:57 21.3 °C 9.2 °C 1019.9 hPa Calm   1.9 km/h 46 % 0 mm
10:02 21.8 °C 9 °C 1019.9 hPa SSE 0.8 km/h 3.2 km/h 44 % 0 mm
10:07 21.8 °C 9.3 °C 1019.9 hPa SSE 1.9 km/h 3.7 km/h 45 % 0 mm
10:12 21.7 °C 9.2 °C 1019.9 hPa Calm     45 % 0 mm
10:17 21.7 °C 9.2 °C 1019.9 hPa Calm     45 % 0 mm
10:22 21.7 °C 9.8 °C 1019.9 hPa Calm     47 % 0 mm
10:27 21.8 °C 9.4 °C 1019.9 hPa Calm     45 % 0 mm
10:32 22.2 °C 9.3 °C 1019.9 hPa Calm     44 % 0 mm
10:37 22.6 °C 9.7 °C 1019.9 hPa Calm     44 % 0 mm
10:42 22.8 °C 9.6 °C 1019.9 hPa Calm     43 % 0 mm
10:47 22.9 °C 9.3 °C 1019.9 hPa Calm     42 % 0 mm
10:52 22.8 °C 9.2 °C 1019.9 hPa Calm     42 % 0 mm
10:57 22.6 °C 9.4 °C 1019.9 hPa Calm     43 % 0 mm
11:02 22.6 °C 9.3 °C 1019.9 hPa Calm     43 % 0 mm
11:07 22.7 °C 9.4 °C 1019.9 hPa Calm     43 % 0 mm
11:12 22.9 °C 9.3 °C 1019.9 hPa Calm     42 % 0 mm
11:17 23.2 °C 9.2 °C 1019.9 hPa Calm     41 % 0 mm
11:22 23.4 °C 9.4 °C 1019.5 hPa Calm     41 % 0 mm
11:27 23.5 °C 9.5 °C 1019.5 hPa Calm     41 % 0 mm
11:32 23.4 °C 9.4 °C 1019.5 hPa Calm     41 % 0 mm
11:37 23.3 °C 9.3 °C 1019.5 hPa Calm     41 % 0 mm
11:42 23.3 °C 9.3 °C 1019.5 hPa Calm     41 % 0 mm
11:47 23.4 °C 9.7 °C 1019.5 hPa SSE 1.1 km/h 3.7 km/h 42 % 0 mm
11:52 23.2 °C 9.6 °C 1019.5 hPa SSE 2.7 km/h 3.7 km/h 42 % 0 mm
11:57 22.9 °C 9.3 °C 1019.5 hPa SSE 0.5 km/h 1.9 km/h 42 % 0 mm
12:02 22.8 °C 9.6 °C 1019.2 hPa SSE 2.6 km/h 5.6 km/h 43 % 0 mm
12:07 22.9 °C 9.7 °C 1019.2 hPa SSE 1.4 km/h 3.7 km/h 43 % 0 mm
12:12 23 °C 9.7 °C 1019.2 hPa SSE 3.1 km/h 5.6 km/h 43 % 0 mm
12:17 23.2 °C 9.6 °C 1019.2 hPa SSE 5.1 km/h 9.3 km/h 42 % 0 mm
12:22 23.2 °C 9.6 °C 1019.5 hPa SSE 5.3 km/h 7.4 km/h 42 % 0 mm
12:27 23.1 °C 9.8 °C 1019.5 hPa Calm   1.9 km/h 43 % 0 mm
12:32 23.2 °C 9.9 °C 1019.2 hPa SSW 9.2 km/h 14.8 km/h 43 % 0 mm
12:37 23.4 °C 10.1 °C 1019.2 hPa SSW 5.6 km/h 7.4 km/h 43 % 0 mm
12:42 23.5 °C 9.8 °C 1019.2 hPa WSW 13.5 km/h 18.5 km/h 42 % 0 mm
12:47 23.4 °C 9.7 °C 1019.2 hPa WSW 10.3 km/h 18.5 km/h 42 % 0 mm
12:52 23.3 °C 10 °C 1018.8 hPa WSW 9.3 km/h 13 km/h 43 % 0 mm
12:57 23.2 °C 9.9 °C 1018.8 hPa WSW 7.1 km/h 12.9 km/h 43 % 0 mm
13:02 23.1 °C 10.2 °C 1018.5 hPa North 5.5 km/h 12.9 km/h 44 % 0 mm
13:07 23.1 °C 10.1 °C 1018.5 hPa SSW 9.3 km/h 14.8 km/h 44 % 0 mm
13:12 23.1 °C 10.1 °C 1018.5 hPa SSW 8 km/h 14.8 km/h 44 % 0 mm
13:17 23.1 °C 10.1 °C 1018.5 hPa SSW 8.4 km/h 13 km/h 44 % 0 mm
13:22 23.2 °C 10.6 °C 1018.5 hPa SSW 7.6 km/h 13 km/h 45 % 0 mm
13:27 23.2 °C 10.3 °C 1018.5 hPa SSW 8.2 km/h 11.1 km/h 44 % 0 mm
13:37 23.2 °C 10.2 °C 1018.5 hPa SW 5 km/h 7.4 km/h 44 % 0 mm
13:42 23.2 °C 10.2 °C 1018.5 hPa SW 6 km/h 8 km/h 44 % 0 mm
13:47 23.2 °C 10.2 °C 1018.5 hPa SW 9.5 km/h 13 km/h 44 % 0 mm
13:52 23.2 °C 10.2 °C 1018.5 hPa SW 4.5 km/h 7.4 km/h 44 % 0 mm
13:57 23.2 °C 10.6 °C 1018.5 hPa SW 5.5 km/h 6.4 km/h 45 % 0 mm
14:02 23.3 °C 10.3 °C 1018.5 hPa SSW 3.9 km/h 5.6 km/h 44 % 0 mm
14:07 23.3 °C 10.4 °C 1018.5 hPa North 3.7 km/h 7.4 km/h 44 % 0 mm
14:12 23.4 °C 10.5 °C 1018.5 hPa SW 6.4 km/h 7.4 km/h 44 % 0 mm
14:17 23.6 °C 10.6 °C 1018.5 hPa SW 3.4 km/h 5.6 km/h 44 % 0 mm
14:22 23.6 °C 10.6 °C 1018.5 hPa SW 6.1 km/h 9.3 km/h 44 % 0 mm
14:27 23.6 °C 10.3 °C 1018.5 hPa SW 11.7 km/h 14.8 km/h 43 % 0 mm
14:32 23.6 °C 10.7 °C 1018.8 hPa SW 11.1 km/h 14.8 km/h 44 % 0 mm
14:37 23.6 °C 10.7 °C 1018.8 hPa SSW 7.2 km/h 13 km/h 44 % 0 mm
14:42 23.5 °C 9.8 °C 1018.8 hPa SSW 5.5 km/h 9.3 km/h 42 % 0 mm
14:47 23.4 °C 9.8 °C 1018.8 hPa South 10.5 km/h 18.5 km/h 42 % 0 mm
14:52 23.3 °C 10 °C 1018.8 hPa SSW 13 km/h 20.4 km/h 43 % 0 mm
14:57 23.3 °C 10.3 °C 1018.8 hPa SSW 9.8 km/h 16.7 km/h 44 % 0 mm
15:02 23.2 °C 9.6 °C 1018.8 hPa South 9.7 km/h 22.2 km/h 42 % 0 mm
15:07 23.2 °C 9.9 °C 1018.8 hPa South 8.7 km/h 18.5 km/h 43 % 0 mm
15:12 23.2 °C 9.6 °C 1018.8 hPa South 10.1 km/h 14.8 km/h 42 % 0 mm
15:17 23.2 °C 10.2 °C 1018.8 hPa South 4.8 km/h 11.1 km/h 44 % 0 mm
15:22 23.2 °C 9.6 °C 1018.8 hPa SSE 12.1 km/h 18.5 km/h 42 % 0 mm
15:27 23.1 °C 9.4 °C 1018.8 hPa South 7.6 km/h 9.3 km/h 42 % 0 mm
15:32 23 °C 9.7 °C 1018.8 hPa South 5.1 km/h 18.5 km/h 43 % 0 mm
15:37 23 °C 9.7 °C 1018.8 hPa South 10 km/h 14.8 km/h 43 % 0 mm
15:42 22.9 °C 9.7 °C 1018.8 hPa South 9.2 km/h 14.8 km/h 43 % 0 mm
15:47 22.9 °C 9.7 °C 1018.8 hPa South 9.2 km/h 13 km/h 43 % 0 mm
15:52 22.9 °C 10 °C 1018.8 hPa South 4.3 km/h 8 km/h 44 % 0 mm
15:57 22.9 °C 9.7 °C 1019.2 hPa South 11.3 km/h 16.7 km/h 43 % 0 mm
16:02 22.9 °C 9.3 °C 1019.2 hPa South 12.6 km/h 18.5 km/h 42 % 0 mm
16:07 22.9 °C 9.7 °C 1019.2 hPa South 4.7 km/h 7.4 km/h 43 % 0 mm
16:12 22.9 °C 9.7 °C 1019.2 hPa South 6.3 km/h 9.3 km/h 43 % 0 mm
16:17 22.9 °C 9.7 °C 1019.2 hPa SSE 10.8 km/h 13 km/h 43 % 0 mm
16:22 22.9 °C 9.7 °C 1019.2 hPa SSE 10.5 km/h 16.1 km/h 43 % 0 mm
16:23 22.9 °C 9.7 °C 1018.8 hPa SSE 6.3 km/h 18.5 km/h 43 % 0 mm
16:28 23.2 °C 9.6 °C 1018.8 hPa SSE 8.4 km/h 18.5 km/h 42 % 0 mm
16:33 23.4 °C 9.8 °C 1018.8 hPa SSE 8.9 km/h 16.7 km/h 42 % 0 mm
16:38 23.5 °C 9.5 °C 1018.8 hPa SSE 11.1 km/h 14.8 km/h 41 % 0 mm
16:43 23.4 °C 9.4 °C 1018.8 hPa SSE 11.1 km/h 11.1 km/h 41 % 0 mm
16:48 23.3 °C 9.7 °C 1018.8 hPa SSE 5.6 km/h 9.7 km/h 42 % 0 mm
16:53 23.3 °C 9.7 °C 1018.8 hPa SSE 7.6 km/h 13 km/h 42 % 0 mm
16:58 23.1 °C 9.8 °C 1018.8 hPa SSE 11.3 km/h 20.4 km/h 43 % 0 mm
17:03 22.9 °C 10 °C 1018.8 hPa SSE 12.2 km/h 16.7 km/h 44 % 0 mm
17:08 22.7 °C 9.8 °C 1018.8 hPa SSE 6.8 km/h 13 km/h 44 % 0 mm
17:13 22.4 °C 9.9 °C 1019.2 hPa SSE 7.1 km/h 13 km/h 45 % 0 mm
17:18 22.2 °C 9.7 °C 1019.2 hPa SSE 6 km/h 13 km/h 45 % 0 mm
17:23 22.1 °C 9.9 °C 1019.2 hPa SSE 6 km/h 9.3 km/h 46 % 0 mm
17:28 21.9 °C 9.7 °C 1018.8 hPa SSE 6 km/h 9.3 km/h 46 % 0 mm
17:33 21.7 °C 9.8 °C 1018.8 hPa SSE 3.2 km/h 9.3 km/h 47 % 0 mm
17:38 21.4 °C 9.9 °C 1018.8 hPa SSE 3.9 km/h 5.6 km/h 48 % 0 mm
17:43 21.2 °C 10 °C 1018.8 hPa SSE 0.2 km/h 1.9 km/h 49 % 0 mm
17:48 20.9 °C 9.8 °C 1019.2 hPa SSE 1.1 km/h 3.7 km/h 49 % 0 mm
17:53 20.7 °C 9.9 °C 1019.2 hPa Calm     50 % 0 mm
17:58 20.3 °C 10.1 °C 1019.2 hPa Calm     52 % 0 mm
18:03 19.9 °C 10 °C 1019.2 hPa Calm     53 % 0 mm
18:08 19.5 °C 9.9 °C 1019.2 hPa Calm     54 % 0 mm
18:13 19.2 °C 9.9 °C 1019.2 hPa Calm     55 % 0 mm
18:18 18.7 °C 10 °C 1019.5 hPa SSE 2.3 km/h 3.7 km/h 57 % 0 mm
18:23 18.3 °C 10.2 °C 1019.5 hPa SSE 2.9 km/h 5.6 km/h 59 % 0 mm
18:28 18.1 °C 9.9 °C 1019.5 hPa Calm     59 % 0 mm
18:33 18 °C 9.9 °C 1019.5 hPa Calm     59 % 0 mm
18:38 17.9 °C 10 °C 1019.5 hPa Calm     60 % 0 mm
18:43 17.8 °C 9.9 °C 1019.5 hPa Calm   1.9 km/h 60 % 0 mm
18:48 17.7 °C 10.1 °C 1019.5 hPa SSE 1.4 km/h 3.2 km/h 61 % 0 mm
18:53 17.7 °C 10.1 °C 1019.5 hPa SSE 2.4 km/h 5.6 km/h 61 % 0 mm
18:58 17.7 °C 9.8 °C 1019.9 hPa SSE 5.1 km/h 7.4 km/h 60 % 0 mm
19:03 17.7 °C 9.8 °C 1019.9 hPa Calm   1.9 km/h 60 % 0 mm
19:08 17.6 °C 9.7 °C 1019.9 hPa SSE 2.3 km/h 3.7 km/h 60 % 0 mm
19:13 17.4 °C 9.8 °C 1019.9 hPa SSE 2.1 km/h 5.6 km/h 61 % 0 mm
19:18 17.4 °C 9.8 °C 1019.9 hPa SSE 3.2 km/h 5.6 km/h 61 % 0 mm
19:23 17.3 °C 9.7 °C 1019.9 hPa SSE 2.7 km/h 5.6 km/h 61 % 0 mm
19:28 17.3 °C 9.7 °C 1019.9 hPa SSE 2.9 km/h 5.6 km/h 61 % 0 mm
19:33 17.4 °C 9.8 °C 1019.9 hPa SSE 2.3 km/h 3.7 km/h 61 % 0 mm
19:38 17.3 °C 9.7 °C 1019.9 hPa Calm     61 % 0 mm
19:48 17.1 °C 9.8 °C 1020.2 hPa SSE 4.3 km/h 6.4 km/h 62 % 0 mm
19:53 17.1 °C 9.8 °C 1020.2 hPa SSE 2.7 km/h 3.7 km/h 62 % 0 mm
19:58 16.9 °C 9.6 °C 1020.2 hPa Calm   1.9 km/h 62 % 0 mm
20:03 16.7 °C 9.6 °C 1020.2 hPa SSE 0.3 km/h 1.9 km/h 63 % 0 mm
20:08 16.3 °C 9.7 °C 1020.2 hPa Calm     65 % 0 mm
20:13 16.2 °C 9.8 °C 1020.2 hPa Calm     66 % 0 mm
20:18 15.9 °C 9.8 °C 1020.2 hPa Calm     67 % 0 mm
20:23 15.8 °C 9.7 °C 1019.9 hPa SSE 0.5 km/h   67 % 0 mm
20:28 15.7 °C 9.6 °C 1019.9 hPa Calm     67 % 0 mm
20:33 15.4 °C 9.5 °C 1020.2 hPa SSE 0.3 km/h 1.9 km/h 68 % 0 mm
20:38 15.1 °C 9.4 °C 1020.2 hPa SSE 0.5 km/h 3.7 km/h 69 % 0 mm
20:43 14.9 °C 9.4 °C 1020.2 hPa Calm     70 % 0 mm
20:53 14.6 °C 9.6 °C 1020.2 hPa SSE 0.8 km/h 3.7 km/h 72 % 0 mm
20:58 14.6 °C 9.6 °C 1020.2 hPa Calm   1.9 km/h 72 % 0 mm
21:03 14.7 °C 9.7 °C 1020.2 hPa Calm     72 % 0 mm
21:08 14.7 °C 9.7 °C 1020.2 hPa Calm     72 % 0 mm
21:13 14.6 °C 9.6 °C 1020.2 hPa Calm     72 % 0 mm
21:18 14.6 °C 9.8 °C 1020.2 hPa SSE 2.3 km/h 3.7 km/h 73 % 0 mm
21:23 14.5 °C 9.7 °C 1020.5 hPa Calm     73 % 0 mm
21:28 14.3 °C 9.6 °C 1020.2 hPa Calm     73 % 0 mm
21:33 14.2 °C 9.4 °C 1020.5 hPa Calm     73 % 0 mm
21:38 14.2 °C 9.6 °C 1020.5 hPa Calm     74 % 0 mm
21:43 14 °C 9.4 °C 1020.5 hPa Calm     74 % 0 mm
21:48 13.9 °C 9.3 °C 1020.5 hPa Calm     74 % 0 mm
21:53 13.8 °C 9.4 °C 1020.5 hPa Calm     75 % 0 mm
21:58 13.7 °C 9.4 °C 1020.5 hPa Calm     75 % 0 mm
22:03 13.6 °C 9.3 °C 1020.5 hPa Calm     75 % 0 mm
22:08 13.6 °C 9.4 °C 1020.5 hPa Calm     76 % 0 mm
22:13 13.3 °C 9.1 °C 1020.5 hPa Calm     76 % 0 mm
22:18 13.1 °C 9.2 °C 1020.5 hPa Calm     77 % 0 mm
22:23 12.9 °C 9.2 °C 1020.5 hPa Calm     78 % 0 mm
22:28 12.8 °C 9.1 °C 1020.5 hPa Calm     78 % 0 mm
22:33 12.6 °C 8.9 °C 1020.5 hPa Calm     78 % 0 mm
22:38 12.4 °C 9.1 °C 1020.5 hPa Calm     80 % 0 mm
22:43 12.3 °C 9.1 °C 1020.2 hPa Calm     81 % 0 mm
22:48 12.2 °C 9 °C 1020.5 hPa Calm     81 % 0 mm
22:58 11.7 °C 8.7 °C 1020.2 hPa Calm     82 % 0 mm
23:03 11.6 °C 8.6 °C 1020.2 hPa Calm     82 % 0 mm
23:08 11.4 °C 8.7 °C 1020.2 hPa Calm     83 % 0 mm
23:13 11.3 °C 8.5 °C 1020.2 hPa Calm     83 % 0 mm
23:18 11 °C 8.2 °C 1020.5 hPa SSE 2.3 km/h 3.7 km/h 83 % 0 mm
23:23 10.8 °C 8 °C 1020.2 hPa North 3.9 km/h 7.4 km/h 83 % 0 mm
23:28 10.6 °C 8 °C 1020.2 hPa SSE 1.1 km/h 5.6 km/h 84 % 0 mm
23:33 10.4 °C 8.1 °C 1020.2 hPa SSE 1.3 km/h 3.7 km/h 85 % 0 mm
23:38 10.3 °C 7.9 °C 1020.2 hPa SSE 1.1 km/h 1.9 km/h 85 % 0 mm
23:43 10.2 °C 7.9 °C 1020.2 hPa Calm     86 % 0 mm
23:48 10.1 °C 8.1 °C 1020.2 hPa Calm     87 % 0 mm
23:53 9.9 °C 7.7 °C 1020.2 hPa SSE 0.5 km/h 3.2 km/h 86 % 0 mm
23:58 9.9 °C 7.8 °C 1020.2 hPa Calm     87 % 0 mm
Ararat Weather
Compliments of Weather Underground - 2.25 mb
Click here to send mail.


ABOUT

Live weather data from Ararat, Victoria, Australia, 3377
Data uploaded from Cumulus every 5 minutes to Weather Underground.
This site then downloads the raw data for formatting and display.
Metric and imperial data can be displayed. Graphs and historical data available.
Includes Sun and Moon times and rain image live from BOM.

Check out Ararat Weather on Facebook, Twitter and Google +

Help support ongoing costs by checking out the ads





Follow @AraratWeather